Latest Weather Observations for Hughenden

IDQ60801

Issued at 8:31 pm EST Thursday 3 September 2015 (issued every 30 minutes, with the page automatically refreshed every 10 minutes)

About weather observations | Map of weather stations | Latest weather observations for QLD | Other Formats
Station Details ID: 030022 Name: HUGHENDEN AIRPORT Lat: -20.82 Lon: 144.23 Height: 316.4 m
Data from the previous 72 hours. | See also: Recent months at Hughenden
Date/Time
EST
Temp
°C
App
Temp
°C
Dew
Point
Rel
Hum
%
Delta-T
°C
Wind Press
QNH
hPa
Press
MSL
hPa
Rain
since 9 am
mm
Dir
 
Spd
km/h
Gust
km/h
Spd
kts
Gust
kts
03/08:30pm 16.9 12.2 -9.0 16 9.3 S 9 11 5 6 1019.7 1018.2 0.0
03/08:00pm 19.5 14.5 -8.7 14 10.5 SSW 11 13 6 7 1019.5 1018.0 0.0
03/07:30pm 20.5 15.5 -7.9 14 10.9 SSW 11 11 6 6 1019.2 1017.7 0.0
03/07:00pm 22.4 17.9 -7.3 13 11.8 SSW 9 11 5 6 1019.0 1017.5 0.0
03/06:30pm 23.8 18.5 -7.3 12 12.5 SW 13 19 7 10 1018.7 1017.2 0.0
03/06:00pm 25.7 19.7 -6.9 11 13.5 SW 17 22 9 12 1018.6 1017.1 0.0
03/05:30pm 26.6 20.3 -6.2 11 13.9 SW 19 26 10 14 1018.3 1016.8 0.0
03/05:00pm 27.2 20.6 -7.0 10 14.3 SW 20 28 11 15 1018.3 1016.8 0.0
03/04:30pm 27.5 20.5 -6.8 10 14.5 SW 22 30 12 16 1018.2 1016.7 0.0
03/04:00pm 27.7 21.3 -6.6 10 14.5 SSW 19 26 10 14 1018.2 1016.7 0.0
03/03:30pm 28.1 21.8 -6.3 10 14.7 WSW 19 24 10 13 1018.1 1016.6 0.0
03/03:00pm 27.5 21.9 -6.8 10 14.4 S 15 26 8 14 1018.1 1016.6 0.0
03/02:30pm 27.9 22.3 -6.5 10 14.6 W 15 26 8 14 1018.4 1016.9 0.0
03/02:00pm 27.1 20.7 -7.1 10 14.3 SSW 19 28 10 15 1018.8 1017.3 0.0
03/01:30pm 26.3 20.2 -7.7 10 13.9 SSW 17 26 9 14 1019.2 1017.7 0.0
03/01:00pm 25.6 19.8 -8.2 10 13.6 S 15 24 8 13 1019.4 1017.9 0.0
03/12:30pm 24.9 19.2 -7.5 11 13.2 SSW 15 24 8 13 1020.1 1018.5 0.0
03/12:00pm 24.8 19.9 -7.6 11 13.1 SSE 11 19 6 10 1020.6 1019.0 0.0
03/11:30am 23.8 18.1 -7.3 12 12.5 S 15 20 8 11 1021.4 1019.9 0.0
03/11:00am 22.9 17.5 -8.0 12 12.1 S 13 20 7 11 1021.9 1020.4 0.0
03/10:30am 22.7 17.0 -7.1 13 11.9 SSE 15 26 8 14 1022.2 1020.7 0.0
03/10:00am 21.5 14.8 -8.0 13 11.4 S 20 26 11 14 1022.6 1021.1 0.0
03/09:30am 20.9 14.7 -8.5 13 11.2 S 17 24 9 13 1022.7 1021.2 0.0
03/09:00am 20.3 13.6 -8.0 14 10.8 S 20 32 11 17 1022.5 1021.0 0.0
03/08:30am 19.3 12.7 -7.1 16 10.2 S 20 26 11 14 1022.3 1020.8 0.0
03/08:00am 18.5 12.7 -4.2 21 9.2 S 17 24 9 13 1022.1 1020.6 0.0
03/07:30am 16.8 13.2 -1.8 28 7.8 SSE 7 11 4 6 1021.6 1020.1 0.0
03/07:00am 13.6 9.7 -1.6 35 6.2 SSE 9 9 5 5 1021.2 1019.7 0.0
03/06:30am 14.2 10.7 -1.0 35 6.3 S 7 7 4 4 1020.7 1019.1 0.0
03/06:00am 14.0 10.2 -0.4 37 6.1 S 9 11 5 6 1020.4 1018.8 0.0
03/05:30am 13.7 10.3 -0.7 37 6.0 S 7 7 4 4 1019.7 1018.2 0.0
03/05:00am 14.0 11.8 -1.6 34 6.4 CALM 0 0 0 0 1019.1 1017.6 0.0
03/04:30am 14.9 12.3 -1.6 32 6.8 WNW 2 7 1 4 1018.6 1017.1 0.0
03/04:00am 15.9 13.8 -0.8 32 7.1 CALM 0 0 0 0 1018.3 1016.8 0.0
03/03:30am 17.0 15.0 0.2 32 7.4 CALM 0 6 0 3 1018.0 1016.4 0.0
03/03:00am 18.2 14.9 0.4 30 7.9 WNW 7 9 4 5 1017.7 1016.1 0.0
03/02:30am 18.5 15.3 -0.3 28 8.3 WNW 6 9 3 5 1017.5 1015.9 0.0
03/02:00am 20.6 16.4 1.5 28 8.9 SW 13 15 7 8 1017.3 1015.7 0.0
03/01:30am 21.3 16.6 1.0 26 9.4 SW 15 24 8 13 1017.0 1015.4 0.0
03/01:00am 21.6 17.3 1.3 26 9.5 SW 13 17 7 9 1016.9 1015.3 0.0
03/12:30am 21.9 17.6 1.0 25 9.7 SSW 13 20 7 11 1016.8 1015.2 0.0
03/12:00am 22.7 17.9 0.5 23 10.3 SSW 15 20 8 11 1016.5 1015.0 0.0
 
Date/Time
EST
Temp
°C
App
Temp
°C
Dew
Point
Rel
Hum
%
Delta-T
°C
Wind Press
QNH
hPa
Press
MSL
hPa
Rain
since 9 am
mm
Dir
 
Spd
km/h
Gust
km/h
Spd
kts
Gust
kts
02/11:30pm 23.6 17.2 0.7 22 10.7 SSW 24 30 13 16 1016.3 1014.8 0.0
02/11:00pm 24.6 17.3 0.2 20 11.4 SSW 28 39 15 21 1015.9 1014.4 0.0
02/10:30pm 20.1 18.0 -1.1 24 9.3 CALM 0 0 0 0 1014.9 1013.3 0.0
02/10:00pm 20.4 18.1 -2.0 22 9.7 CALM 0 0 0 0 1014.9 1013.3 0.0
02/09:30pm 22.0 18.7 -1.3 21 10.4 W 6 6 3 3 1014.6 1013.0 0.0
02/09:00pm 23.5 20.1 -2.2 18 11.4 W 6 7 3 4 1014.4 1012.8 0.0
02/08:30pm 24.7 21.2 -1.2 18 11.8 W 7 7 4 4 1014.3 1012.7 0.0
02/08:00pm 26.9 23.2 -0.2 17 12.8 W 9 11 5 6 1014.0 1012.4 0.0
02/07:30pm 27.4 23.1 -1.5 15 13.4 W 11 13 6 7 1013.6 1012.0 0.0
02/07:00pm 28.5 24.2 -1.6 14 14.0 W 11 15 6 8 1013.2 1011.7 0.0
02/06:30pm 30.0 25.4 -1.4 13 14.9 WNW 13 17 7 9 1012.8 1011.3 0.0
02/06:00pm 32.3 26.8 -1.9 11 16.3 W 17 20 9 11 1012.6 1011.1 0.0
02/05:30pm 33.5 27.2 -1.0 11 16.8 WNW 22 30 12 16 1012.4 1010.8 0.0
02/05:00pm 34.4 29.0 -1.6 10 17.5 WNW 17 24 9 13 1012.2 1010.6 0.0
02/04:30pm 34.5 28.1 -1.5 10 17.5 WNW 22 30 12 16 1012.0 1010.4 0.0
02/04:00pm 35.2 29.3 -1.0 10 17.9 WNW 20 28 11 15 1011.9 1010.3 0.0
02/03:30pm 35.1 28.4 -1.1 10 17.8 NW 24 37 13 20 1012.0 1010.4 0.0
02/03:00pm 34.8 29.0 -1.3 10 17.7 WNW 19 32 10 17 1012.3 1010.7 0.0
02/02:30pm 34.2 28.5 -0.4 11 17.1 NW 19 33 10 18 1012.6 1011.1 0.0
02/02:00pm 35.6 29.5 0.6 11 17.8 NW 22 35 12 19 1013.2 1011.7 0.0
02/01:30pm 34.3 27.1 0.8 12 16.9 WNW 28 37 15 20 1013.8 1012.2 0.0
02/01:00pm 34.2 28.2 0.8 12 16.9 NW 22 32 12 17 1014.3 1012.7 0.0
02/12:30pm 33.8 28.3 1.6 13 16.4 NW 20 33 11 18 1014.8 1013.2 0.0
02/12:00pm 32.7 26.3 0.7 13 16.0 NW 24 32 13 17 1015.4 1013.9 0.0
02/11:30am 32.9 26.9 0.9 13 16.0 NW 22 32 12 17 1015.9 1014.4 0.0
02/11:00am 32.3 26.6 0.4 13 15.8 N 20 30 11 16 1016.2 1014.7 0.0
02/10:30am 31.3 26.5 5.7 20 13.8 N 20 28 11 15 1016.5 1015.0 0.0
02/10:00am 29.4 25.1 9.5 29 11.3 N 22 30 12 16 1016.8 1015.2 0.0
02/09:30am 27.5 23.8 10.2 34 9.8 NNE 20 26 11 14 1016.9 1015.3 0.0
02/09:00am 25.8 23.2 11.9 42 8.0 NNE 17 24 9 13 1017.1 1015.5 -
02/08:30am 24.2 21.6 13.1 50 6.5 NNE 19 26 10 14 1017.1 1015.5 -
02/08:00am 22.4 19.4 13.7 58 5.1 NNE 22 30 12 16 1016.9 1015.3 -
02/07:30am 20.5 18.0 13.5 64 4.1 NE 19 24 10 13 1016.4 1014.9 -
02/07:00am 19.3 17.8 13.0 67 3.6 NE 13 17 7 9 1016.0 1014.5 -
02/06:30am 19.0 16.9 12.5 66 3.7 NE 15 20 8 11 1015.6 1014.1 -
02/06:00am 19.0 16.8 12.0 64 3.9 NE 15 19 8 10 1015.2 1013.6 -
02/05:30am 19.5 17.3 12.0 62 4.2 NE 15 20 8 11 1014.8 1013.2 -
02/05:00am 19.0 16.8 10.8 59 4.5 NE 13 15 7 8 1014.5 1012.9 -
02/04:30am 18.5 15.9 9.3 55 4.9 NE 13 15 7 8 1014.5 1012.9 -
02/04:00am 17.8 15.2 9.2 57 4.6 NE 13 17 7 9 1014.5 1012.9 -
02/03:30am 12.9 8.5 -6.1 26 7.0 ENE 9 11 5 6 1014.6 1013.0 -
02/03:00am 13.7 10.3 -5.4 26 7.2 ENE 4 7 2 4 1014.8 1013.2 -
02/02:30am 13.7 11.1 -5.4 26 7.2 CALM 0 4 0 2 1014.7 1013.1 -
02/02:00am 13.5 10.8 -6.1 25 7.3 CALM 0 0 0 0 1014.5 1012.9 -
02/01:30am 14.2 11.5 -5.5 25 7.5 CALM 0 4 0 2 1014.8 1013.2 -
02/01:00am 15.1 12.5 -5.3 24 7.8 CALM 0 0 0 0 1015.0 1013.4 -
02/12:30am 16.0 13.4 -4.5 24 8.1 CALM 0 0 0 0 1015.0 1013.4 -
02/12:00am 17.7 14.1 -3.7 23 8.7 ENE 6 7 3 4 1015.0 1013.4 -
 
Date/Time
EST
Temp
°C
App
Temp
°C
Dew
Point
Rel
Hum
%
Delta-T
°C
Wind Press
QNH
hPa
Press
MSL
hPa
Rain
since 9 am
mm
Dir
 
Spd
km/h
Gust
km/h
Spd
kts
Gust
kts
01/11:30pm 17.8 13.9 -4.8 21 9.0 ENE 7 9 4 5 1014.9 1013.3 -
01/11:00pm 19.2 14.7 -3.6 21 9.5 SE 11 13 6 7 1014.7 1013.1 -
01/10:30pm 17.5 13.1 -6.3 19 9.2 SE 9 11 5 6 1014.4 1012.8 -
01/10:00pm 19.0 14.7 -5.1 19 9.7 SE 9 9 5 5 1014.4 1012.8 -
01/09:30pm 20.3 15.3 -4.0 19 10.1 SSE 13 13 7 7 1014.2 1012.6 0.0
01/09:00pm 19.7 15.4 -5.3 18 10.1 SE 9 13 5 7 1013.9 1012.3 0.0
01/08:30pm 21.7 17.4 -5.2 16 11.1 S 9 11 5 6 1013.6 1012.0 0.0
01/08:00pm 22.7 18.0 -5.2 15 11.6 SSW 11 13 6 7 1013.2 1011.7 0.0
01/07:30pm 23.8 19.5 -5.3 14 12.2 SSW 9 9 5 5 1012.8 1011.3 0.0
01/07:00pm 25.2 20.9 -5.1 13 12.9 SW 9 11 5 6 1012.4 1010.8 0.0
01/06:30pm 27.6 23.4 -4.3 12 14.1 SW 9 11 5 6 1012.0 1010.4 0.0
01/06:00pm 30.0 25.7 -4.9 10 15.6 SW 9 11 5 6 1011.8 1010.2 0.0
01/05:30pm 31.6 27.4 -3.7 10 16.2 W 9 13 5 7 1011.7 1010.1 0.0
01/05:00pm 32.0 27.7 -4.8 9 16.7 NW 9 19 5 10 1011.7 1010.1 0.0
01/04:30pm 31.8 27.9 -4.9 9 16.6 W 7 13 4 7 1011.5 1009.9 0.0
01/04:00pm 32.0 27.7 -4.8 9 16.7 SSW 9 13 5 7 1011.6 1010.0 0.0
01/03:30pm 32.0 28.1 -4.8 9 16.7 W 7 17 4 9 1011.9 1010.3 0.0
01/03:00pm 31.6 27.3 -5.1 9 16.5 SSE 9 15 5 8 1012.3 1010.7 0.0
01/02:30pm 31.7 28.1 -3.6 10 16.3 NE 6 15 3 8 1012.7 1011.2 0.0
01/02:00pm 30.9 26.3 -4.2 10 15.9 NW 11 17 6 9 1013.3 1011.8 0.0
01/01:30pm 30.7 26.1 -4.4 10 15.9 SW 11 17 6 9 1014.0 1012.4 0.0
01/01:00pm 30.5 26.8 -4.5 10 15.7 NW 6 15 3 8 1014.4 1012.8 0.0
01/12:30pm 29.2 25.0 -4.3 11 15.0 NW 9 17 5 9 1015.1 1013.5 0.0
01/12:00pm 29.2 25.5 -4.3 11 15.0 S 6 15 3 8 1015.7 1014.2 0.0
01/11:30am 28.3 24.0 -4.9 11 14.6 ENE 9 26 5 14 1016.2 1014.7 0.0
01/11:00am 27.4 21.6 -4.5 12 14.0 NE 17 22 9 12 1016.6 1015.1 0.0
01/10:30am 27.1 22.2 -3.7 13 13.7 ENE 13 20 7 11 1017.3 1015.7 0.0
01/10:00am 25.6 19.9 -3.8 14 12.8 ENE 17 24 9 13 1017.6 1016.0 0.0
01/09:30am 24.5 19.1 -4.7 14 12.5 E 15 22 8 12 1017.7 1016.7 0.0
01/09:00am 23.2 17.9 -4.0 16 11.6 ENE 15 17 8 9 1017.9 1017.0 0.0
01/08:30am 21.4 16.5 -3.1 19 10.5 E 13 17 7 9 1017.8 1016.9 0.0
01/08:00am 18.2 14.3 -5.1 20 9.3 E 7 11 4 6 1017.8 1016.9 0.0
01/07:30am 14.2 10.5 -5.0 26 7.3 NE 6 9 3 5 1017.6 1016.6 0.0
01/07:00am 9.3 5.7 -7.8 29 5.8 SSE 4 6 2 3 1017.4 1016.4 0.0
01/06:30am 8.4 4.4 -8.1 30 5.5 E 6 7 3 4 1017.0 1016.0 0.0
01/06:00am 8.9 4.7 -8.1 29 5.7 E 7 9 4 5 1016.6 1015.7 0.0
01/05:30am 9.0 6.0 -9.0 27 5.9 CALM 0 0 0 0 1016.5 1015.6 0.0
01/05:00am 9.2 5.1 -8.8 27 5.9 NE 6 9 3 5 1016.4 1015.5 0.0
01/04:30am 10.1 5.1 -8.0 27 6.1 NE 11 13 6 7 1016.4 1015.5 0.0
01/04:00am 10.0 5.3 -8.6 26 6.2 NE 9 9 5 5 1016.6 1015.7 0.0
01/03:30am 10.1 5.5 -8.0 27 6.1 NE 9 11 5 6 1016.6 1015.7 0.0
01/03:00am 10.4 7.4 -9.3 24 6.5 CALM 0 0 0 0 1016.5 1015.6 0.0
01/02:30am 10.9 8.0 -8.3 25 6.5 CALM 0 0 0 0 1016.5 1015.6 0.0
01/02:00am 11.2 8.3 -8.6 24 6.7 CALM 0 0 0 0 1016.6 1015.7 0.0
01/01:30am 11.6 8.6 -8.8 23 6.9 CALM 0 0 0 0 1016.6 1015.7 0.0
01/01:00am 12.5 9.5 -9.2 21 7.4 CALM 0 0 0 0 1016.9 1015.9 0.0
01/12:30am 13.4 9.3 -9.1 20 7.8 NE 6 6 3 3 1017.0 1016.0 0.0
01/12:00am 14.7 10.7 -8.0 20 8.2 SE 6 7 3 4 1017.0 1016.0 0.0
 
Date/Time
EST
Temp
°C
App
Temp
°C
Dew
Point
Rel
Hum
%
Delta-T
°C
Wind Press
QNH
hPa
Press
MSL
hPa
Rain
since 9 am
mm
Dir
 
Spd
km/h
Gust
km/h
Spd
kts
Gust
kts
31/11:30pm 14.8 9.8 -7.9 20 8.2 S 11 13 6 7 1016.9 1015.9 0.0
31/11:00pm 15.9 10.9 -8.4 18 8.8 SSE 11 13 6 7 1016.9 1015.9 0.0
31/10:30pm 16.3 12.0 -8.8 17 9.1 SSE 7 7 4 4 1016.9 1015.9 0.0
31/10:00pm 18.8 13.4 -8.3 15 10.2 SSE 13 17 7 9 1016.8 1015.8 0.0
31/09:30pm 18.8 13.8 -8.3 15 10.2 SSE 11 15 6 8 1016.5 1015.6 0.0
31/09:00pm 20.3 15.2 -9.0 13 11.0 SSE 11 15 6 8 1016.2 1015.3 0.0

Other Formats:

Comma delimited format used in spreadsheet applications
http://www.bom.gov.au/fwo/IDQ60801/IDQ60801.94343.axf

JavaScript Object Notation format (JSON) in row-major order
http://www.bom.gov.au/fwo/IDQ60801/IDQ60801.94343.json